Terminal Aerodrome Forecast
Issued by NWS

Home | Current Version | Previous Version | Text Only | Print | Product List | Glossary On
Versions: 1 2 3 4 5 6 7 8 9 10 11 12 13 14 15 16 17 18 19 20 21
000
FTUS46 KMTR 250500
TAFSJC
TAF
KSJC 250535Z 2506/2606 30016G19KT P6SM FEW020
     FM251100 31006KT P6SM FEW020
     FM251900 30014G19KT P6SM FEW030
     FM260300 30009KT P6SM SKC=

USA.gov is the U.S. government's official web portal to all federal, state and local government web resources and services.